createdAt,value
2023-09-30T00:04:08.557Z,19.71
2023-09-30T00:09:10.384Z,19.78
2023-09-30T00:14:12.085Z,19.81
2023-09-30T00:19:14.696Z,19.78
2023-09-30T00:24:16.355Z,19.81
2023-09-30T00:29:19.033Z,19.83
2023-09-30T00:34:20.678Z,19.84
2023-09-30T00:39:22.368Z,19.87
2023-09-30T00:44:23.964Z,19.97
2023-09-30T00:49:26.297Z,20.02
2023-09-30T00:54:28.696Z,20.06
2023-09-30T00:59:33.564Z,20.04
2023-09-30T01:04:35.291Z,20.06
2023-09-30T01:09:37.823Z,20.09
2023-09-30T01:14:39.892Z,20.08
2023-09-30T01:19:44.052Z,20.10
2023-09-30T01:24:48.732Z,20.13
2023-09-30T01:29:51.501Z,20.15
2023-09-30T01:34:53.097Z,20.21
2023-09-30T01:39:56.228Z,20.28
2023-09-30T01:44:59.043Z,20.28
2023-09-30T01:50:00.699Z,20.35
2023-09-30T01:55:02.411Z,20.31
2023-09-30T02:00:06.068Z,20.43
2023-09-30T02:05:10.785Z,20.55
2023-09-30T02:10:12.882Z,20.60
2023-09-30T02:15:15.493Z,20.60
2023-09-30T02:20:20.357Z,20.61
2023-09-30T02:25:22.270Z,20.64
2023-09-30T02:30:24.168Z,20.73
2023-09-30T02:35:27.225Z,20.74
2023-09-30T02:40:28.913Z,20.84
2023-09-30T02:45:30.606Z,20.90
2023-09-30T02:50:32.341Z,20.92
2023-09-30T02:55:33.971Z,20.96
2023-09-30T03:00:37.099Z,20.87
2023-09-30T03:05:38.855Z,20.85
2023-09-30T03:10:42.080Z,20.82
2023-09-30T03:15:43.895Z,20.81
2023-09-30T03:20:45.512Z,20.85
2023-09-30T03:25:47.130Z,20.71
2023-09-30T03:30:48.805Z,20.70
2023-09-30T03:35:50.502Z,20.58
2023-09-30T03:40:54.236Z,20.57
2023-09-30T03:45:56.706Z,20.45
2023-09-30T03:50:58.744Z,20.54
2023-09-30T03:56:00.649Z,20.34
2023-09-30T04:01:02.421Z,20.59
2023-09-30T04:06:04.305Z,20.42
2023-09-30T04:11:06.055Z,20.29
2023-09-30T04:16:08.593Z,20.26
2023-09-30T04:21:10.308Z,20.50
2023-09-30T04:26:11.918Z,20.35
2023-09-30T04:31:14.509Z,20.34
2023-09-30T04:36:16.373Z,20.13
2023-09-30T04:41:18.073Z,19.99
2023-09-30T04:46:21.847Z,20.10
2023-09-30T04:51:23.618Z,20.12
2023-09-30T04:56:26.424Z,19.95
2023-09-30T05:01:29.000Z,19.96
2023-09-30T05:06:33.897Z,19.69
2023-09-30T05:11:36.550Z,19.76
2023-09-30T05:16:38.382Z,19.89
2023-09-30T05:21:40.150Z,19.54
2023-09-30T05:26:41.844Z,19.73
2023-09-30T05:31:43.748Z,19.74
2023-09-30T05:36:45.475Z,19.73
2023-09-30T05:41:48.023Z,19.75
2023-09-30T05:46:49.737Z,19.84
2023-09-30T05:51:52.030Z,19.93
2023-09-30T05:56:53.666Z,19.70
2023-09-30T06:01:55.310Z,19.82
2023-09-30T06:06:57.783Z,19.80
2023-09-30T06:12:00.889Z,19.52
2023-09-30T06:17:03.637Z,19.61
2023-09-30T06:22:06.047Z,19.58
2023-09-30T06:27:07.625Z,19.49
2023-09-30T06:32:09.471Z,19.38
2023-09-30T06:37:11.390Z,18.93
2023-09-30T06:42:13.006Z,18.94
2023-09-30T06:47:14.594Z,18.93
2023-09-30T06:52:16.267Z,18.78
2023-09-30T06:57:17.921Z,18.56
2023-09-30T07:02:19.575Z,18.57
2023-09-30T07:07:21.161Z,18.49
2023-09-30T07:12:23.728Z,18.69
2023-09-30T07:17:25.360Z,18.57
2023-09-30T07:22:43.593Z,18.53
2023-09-30T07:27:49.026Z,18.65
2023-09-30T07:32:51.482Z,18.74
2023-09-30T07:37:54.423Z,18.94
2023-09-30T07:42:57.628Z,18.61
2023-09-30T07:47:59.890Z,18.05
2023-09-30T07:53:02.052Z,17.89
2023-09-30T07:58:04.483Z,18.17
2023-09-30T08:03:07.530Z,18.29
2023-09-30T08:08:09.760Z,18.37
2023-09-30T08:13:11.386Z,18.67
2023-09-30T08:18:13.139Z,18.74
2023-09-30T08:23:14.895Z,19.06
2023-09-30T08:28:17.384Z,19.34
2023-09-30T08:33:19.021Z,19.80
2023-09-30T08:38:20.713Z,19.58
2023-09-30T08:43:28.882Z,19.21
2023-09-30T08:48:33.667Z,19.38
2023-09-30T08:53:36.422Z,19.46
2023-09-30T08:58:38.711Z,19.80
2023-09-30T09:03:40.451Z,20.07
2023-09-30T09:08:42.358Z,19.64
2023-09-30T09:13:50.646Z,19.74
2023-09-30T09:18:52.483Z,19.93
2023-09-30T09:23:55.228Z,20.13
2023-09-30T09:29:06.020Z,19.87
2023-09-30T09:34:15.444Z,20.08
2023-09-30T09:39:17.815Z,20.19
2023-09-30T09:44:24.043Z,20.24
2023-09-30T09:49:26.973Z,20.08
2023-09-30T09:54:30.515Z,20.19
2023-09-30T09:59:33.502Z,20.14
2023-09-30T10:04:35.201Z,19.74
2023-09-30T10:09:37.350Z,20.09
2023-09-30T10:14:39.145Z,20.65
2023-09-30T10:20:10.894Z,20.57
2023-09-30T10:25:37.305Z,20.36
2023-09-30T10:30:39.088Z,20.18
2023-09-30T10:35:40.702Z,19.76
2023-09-30T10:40:42.382Z,19.82
2023-09-30T10:45:46.066Z,20.08
2023-09-30T10:50:52.147Z,19.72
2023-09-30T10:56:01.453Z,19.89
2023-09-30T11:01:03.652Z,20.03
2023-09-30T11:11:09.944Z,20.27
2023-09-30T11:16:11.827Z,19.98
2023-09-30T11:21:14.663Z,20.24
2023-09-30T11:26:16.439Z,20.30
2023-09-30T11:31:19.420Z,20.19
2023-09-30T11:36:22.990Z,20.02
2023-09-30T11:41:34.555Z,19.85
2023-09-30T11:46:56.914Z,20.25
2023-09-30T11:52:01.686Z,20.22
2023-09-30T11:57:04.532Z,20.37
2023-09-30T12:02:15.116Z,20.25
2023-09-30T12:07:17.155Z,20.34
2023-09-30T12:12:19.104Z,20.03
2023-09-30T12:17:22.597Z,20.07
2023-09-30T12:22:24.268Z,20.23
2023-09-30T12:27:26.069Z,19.87
2023-09-30T12:32:28.008Z,20.09
2023-09-30T12:37:30.438Z,20.16
2023-09-30T12:42:32.105Z,19.94
2023-09-30T12:47:33.771Z,20.37
2023-09-30T12:52:35.902Z,20.34
2023-09-30T12:57:37.950Z,20.34
2023-09-30T13:02:39.799Z,20.67
2023-09-30T13:07:41.499Z,20.79
2023-09-30T13:12:43.172Z,21.15
2023-09-30T13:17:45.096Z,20.73
2023-09-30T13:22:46.908Z,20.73
2023-09-30T13:27:48.552Z,20.45
2023-09-30T13:32:50.585Z,20.69
2023-09-30T13:37:52.421Z,20.79
2023-09-30T13:42:54.151Z,20.75
2023-09-30T13:47:55.824Z,20.63
2023-09-30T13:52:58.145Z,20.56
2023-09-30T13:57:59.822Z,20.11
2023-09-30T14:03:01.787Z,19.80
2023-09-30T14:08:04.777Z,19.77
2023-09-30T14:13:06.585Z,19.68
2023-09-30T14:18:09.174Z,19.75
2023-09-30T14:23:11.015Z,19.73
2023-09-30T14:28:12.760Z,19.70
2023-09-30T14:33:14.698Z,19.75
2023-09-30T14:38:16.311Z,20.01
2023-09-30T14:43:17.917Z,20.13
2023-09-30T14:48:19.527Z,20.00
2023-09-30T14:53:21.197Z,19.75
2023-09-30T14:58:22.839Z,19.93
2023-09-30T15:03:24.509Z,19.66
2023-09-30T15:08:26.157Z,19.67
2023-09-30T15:13:28.252Z,19.44
2023-09-30T15:18:30.055Z,19.42
2023-09-30T15:23:33.530Z,19.25
2023-09-30T15:28:35.661Z,19.24
2023-09-30T15:33:37.855Z,19.17
2023-09-30T15:38:39.501Z,19.26
2023-09-30T15:43:41.372Z,19.20
2023-09-30T15:48:43.018Z,19.04
2023-09-30T15:53:45.677Z,19.15
2023-09-30T15:58:47.273Z,19.03
2023-09-30T16:03:48.985Z,18.89
2023-09-30T16:08:50.762Z,18.99
2023-09-30T16:13:53.099Z,18.73
2023-09-30T16:18:54.779Z,18.42
2023-09-30T16:23:56.654Z,18.35
2023-09-30T16:28:59.769Z,18.39
2023-09-30T16:34:03.116Z,18.46
2023-09-30T16:39:04.771Z,18.17
2023-09-30T16:44:06.863Z,18.17
2023-09-30T16:49:10.178Z,18.10
2023-09-30T16:54:11.877Z,18.07
2023-09-30T16:59:14.966Z,17.92
2023-09-30T17:04:16.986Z,17.85
2023-09-30T17:09:18.749Z,17.75
2023-09-30T17:14:20.356Z,17.65
2023-09-30T17:19:23.618Z,17.53
2023-09-30T17:24:25.322Z,17.47
2023-09-30T17:29:27.052Z,17.43
2023-09-30T17:34:28.666Z,17.39
2023-09-30T17:39:30.860Z,17.31
2023-09-30T17:44:32.448Z,17.23
2023-09-30T17:49:34.046Z,17.16
2023-09-30T17:54:35.696Z,17.12
2023-09-30T17:59:37.851Z,17.01
2023-09-30T18:04:43.183Z,17.00
2023-09-30T18:09:45.015Z,16.89
2023-09-30T18:14:46.699Z,16.80
2023-09-30T18:19:48.712Z,16.77
2023-09-30T18:24:50.721Z,16.69
2023-09-30T18:29:52.381Z,16.68
2023-09-30T18:34:55.024Z,16.53
2023-09-30T18:39:56.745Z,16.41
2023-09-30T18:44:58.433Z,16.30
2023-09-30T18:50:00.059Z,16.26
2023-09-30T18:55:03.346Z,16.16
2023-09-30T19:00:06.802Z,16.10
2023-09-30T19:05:09.569Z,16.01
2023-09-30T19:10:11.485Z,15.95
2023-09-30T19:15:13.667Z,15.88
2023-09-30T19:20:16.097Z,15.74
2023-09-30T19:25:18.102Z,15.63
2023-09-30T19:30:20.424Z,15.60
2023-09-30T19:35:23.597Z,15.53
2023-09-30T19:40:25.216Z,15.42
2023-09-30T19:45:27.547Z,15.37
2023-09-30T19:50:30.159Z,15.27
2023-09-30T19:55:31.813Z,15.23
2023-09-30T20:00:40.385Z,15.17
2023-09-30T20:05:42.079Z,15.04
2023-09-30T20:10:43.767Z,14.95
2023-09-30T20:15:45.451Z,14.91
2023-09-30T20:20:47.097Z,14.87
2023-09-30T20:25:48.724Z,14.85
2023-09-30T20:35:53.300Z,14.60
2023-09-30T20:40:54.978Z,14.59
2023-09-30T20:45:56.635Z,14.58
2023-09-30T20:50:58.278Z,14.53
2023-09-30T20:56:00.816Z,14.55
2023-09-30T21:01:12.388Z,14.46
2023-09-30T21:06:14.424Z,14.42
2023-09-30T21:11:16.008Z,14.42
2023-09-30T21:16:17.760Z,14.44
2023-09-30T21:21:22.756Z,14.47
2023-09-30T21:26:24.417Z,14.44
2023-09-30T21:31:29.758Z,14.35
2023-09-30T21:36:33.040Z,14.40
2023-09-30T21:41:35.846Z,14.30
2023-09-30T21:46:38.035Z,14.29
2023-09-30T21:51:39.759Z,14.26
2023-09-30T21:56:42.023Z,14.15
2023-09-30T22:01:44.613Z,14.11
2023-09-30T22:06:47.824Z,14.02
2023-09-30T22:11:52.153Z,14.02
2023-09-30T22:16:53.836Z,14.04
2023-09-30T22:21:55.548Z,14.01
2023-09-30T22:26:57.274Z,14.09
2023-09-30T22:31:59.144Z,14.04
2023-09-30T22:37:00.820Z,14.00
2023-09-30T22:42:02.433Z,13.97
2023-09-30T22:47:04.153Z,13.90
2023-09-30T22:52:05.880Z,13.81
2023-09-30T22:57:07.505Z,13.79
2023-09-30T23:02:09.224Z,13.72
2023-09-30T23:07:12.956Z,13.67
2023-09-30T23:12:16.466Z,13.69
2023-09-30T23:17:18.186Z,13.58
2023-09-30T23:22:19.895Z,13.57
2023-09-30T23:27:21.921Z,13.57
2023-09-30T23:32:26.046Z,13.54
2023-09-30T23:37:27.684Z,13.43
2023-09-30T23:42:29.320Z,13.43
2023-09-30T23:47:44.869Z,13.42
2023-09-30T23:52:59.026Z,13.41
2023-09-30T23:58:02.805Z,13.31
